createdAt,value
2023-03-24T00:03:34.630Z,99887.13
2023-03-24T00:08:41.509Z,99887.42
2023-03-24T00:13:50.409Z,99886.02
2023-03-24T00:18:56.583Z,99893.33
2023-03-24T00:24:03.013Z,99895.29
2023-03-24T00:29:13.869Z,99904.23
2023-03-24T00:34:21.853Z,99905.41
2023-03-24T00:39:27.621Z,99903.41
2023-03-24T00:44:34.434Z,99903.04
2023-03-24T00:49:44.827Z,99898.96
2023-03-24T00:54:55.297Z,99898.15
2023-03-24T01:00:14.658Z,99888.58
2023-03-24T01:05:28.465Z,99884.34
2023-03-24T01:10:36.320Z,99879.47
2023-03-24T01:15:41.884Z,99879.79
2023-03-24T01:20:51.528Z,99888.74
2023-03-24T01:25:57.124Z,99886.88
2023-03-24T01:31:02.913Z,99894.96
2023-03-24T01:36:09.790Z,99892.35
2023-03-24T01:41:15.625Z,99896.32
2023-03-24T01:46:22.908Z,99897.11
2023-03-24T01:51:35.414Z,99895.66
2023-03-24T01:56:47.314Z,99883.19
2023-03-24T02:02:04.986Z,99875.92
2023-03-24T02:07:22.097Z,99873.16
2023-03-24T02:12:27.746Z,99869.35
2023-03-24T02:17:54.795Z,99869.64
2023-03-24T02:23:24.535Z,99863.19
2023-03-24T02:28:43.317Z,99856.63
2023-03-24T02:34:19.207Z,99856.89
2023-03-24T02:39:47.547Z,99861.99
2023-03-24T02:45:04.923Z,99859.41
2023-03-24T02:50:18.451Z,99862.75
2023-03-24T02:55:31.545Z,99868.00
2023-03-24T03:00:47.345Z,99863.24
2023-03-24T03:06:23.601Z,99851.27
2023-03-24T03:11:29.181Z,99854.80
2023-03-24T03:16:39.378Z,99862.60
2023-03-24T03:21:48.368Z,99868.11
2023-03-24T03:27:00.365Z,99870.35
2023-03-24T03:32:17.811Z,99870.09
2023-03-24T03:37:30.608Z,99874.22
2023-03-24T03:42:36.838Z,99872.79
2023-03-24T03:47:43.195Z,99880.55
2023-03-24T03:52:50.968Z,99873.65
2023-03-24T03:57:56.733Z,99866.96
2023-03-24T04:03:39.300Z,99872.63
2023-03-24T04:08:50.965Z,99863.53
2023-03-24T04:14:11.535Z,99863.16
2023-03-24T04:19:40.776Z,99864.25
2023-03-24T04:24:51.801Z,99861.08
2023-03-24T04:30:16.519Z,99854.14
2023-03-24T04:35:42.070Z,99851.50
2023-03-24T04:40:58.790Z,99849.44
2023-03-24T04:46:05.691Z,99844.02
2023-03-24T04:51:33.110Z,99839.19
2023-03-24T04:56:52.029Z,99827.64
2023-03-24T05:02:03.001Z,99826.97
2023-03-24T05:07:17.526Z,99828.19
2023-03-24T05:12:24.984Z,99830.44
2023-03-24T05:17:54.697Z,99822.07
2023-03-24T05:23:02.910Z,99822.94
2023-03-24T05:28:08.526Z,99819.84
2023-03-24T05:33:14.360Z,99812.98
2023-03-24T05:38:19.873Z,99812.05
2023-03-24T05:43:27.881Z,99808.13
2023-03-24T05:48:44.457Z,99806.64
2023-03-24T05:53:52.698Z,99791.46
2023-03-24T05:59:03.083Z,99784.59
2023-03-24T06:04:36.024Z,99795.37
2023-03-24T06:09:52.472Z,99799.00
2023-03-24T06:14:59.054Z,99793.08
2023-03-24T06:20:14.975Z,99791.95
2023-03-24T06:25:28.582Z,99785.97
2023-03-24T06:30:45.180Z,99785.84
2023-03-24T06:35:52.533Z,99790.76
2023-03-24T06:41:03.663Z,99784.30
2023-03-24T06:46:10.986Z,99786.56
2023-03-24T06:51:19.228Z,99788.58
2023-03-24T06:56:25.326Z,99785.30
2023-03-24T07:01:36.109Z,99780.97
2023-03-24T07:07:19.708Z,99784.98
2023-03-24T07:12:31.146Z,99785.71
2023-03-24T07:17:36.988Z,99787.67
2023-03-24T07:22:59.133Z,99791.85
2023-03-24T07:28:05.207Z,99794.38
2023-03-24T07:33:12.504Z,99791.59
2023-03-24T07:38:19.556Z,99794.02
2023-03-24T07:43:26.345Z,99797.38
2023-03-24T07:48:47.707Z,99792.59
2023-03-24T07:53:53.517Z,99790.45
2023-03-24T07:59:14.623Z,99781.30
2023-03-24T08:04:42.919Z,99778.22
2023-03-24T08:09:57.825Z,99770.23
2023-03-24T08:15:04.124Z,99768.39
2023-03-24T08:20:15.160Z,99764.04
2023-03-24T08:25:24.082Z,99756.33
2023-03-24T08:30:30.488Z,99749.97
2023-03-24T08:35:40.072Z,99742.33
2023-03-24T08:40:45.940Z,99739.66
2023-03-24T08:45:51.879Z,99721.33
2023-03-24T08:50:57.909Z,99704.54
2023-03-24T08:56:06.045Z,99696.58
2023-03-24T09:01:12.493Z,99688.66
2023-03-24T09:06:18.099Z,99680.77
2023-03-24T09:11:24.691Z,99670.26
2023-03-24T09:16:31.792Z,99661.01
2023-03-24T09:21:38.507Z,99654.19
2023-03-24T09:26:44.330Z,99643.30
2023-03-24T09:31:51.962Z,99639.89
2023-03-24T09:36:57.475Z,99631.70
2023-03-24T09:42:06.027Z,99614.91
2023-03-24T09:47:21.963Z,99606.52
2023-03-24T09:52:33.913Z,99610.79
2023-03-24T09:57:44.418Z,99603.97
2023-03-24T10:02:52.157Z,99589.15
2023-03-24T10:08:06.053Z,99587.10
2023-03-24T10:13:21.340Z,99586.33
2023-03-24T10:18:34.713Z,99578.34
2023-03-24T10:23:48.537Z,99572.56
2023-03-24T10:29:04.862Z,99566.37
2023-03-24T10:34:13.252Z,99558.98
2023-03-24T10:39:21.111Z,99560.21
2023-03-24T10:44:31.704Z,99556.79
2023-03-24T10:49:38.363Z,99548.10
2023-03-24T10:54:56.461Z,99542.80
2023-03-24T11:00:26.898Z,99537.67
2023-03-24T11:05:35.408Z,99539.05
2023-03-24T11:10:40.972Z,99538.33
2023-03-24T11:16:04.374Z,99536.11
2023-03-24T11:21:10.056Z,99532.73
2023-03-24T11:26:18.198Z,99525.20
2023-03-24T11:31:25.934Z,99516.39
2023-03-24T11:36:46.847Z,99506.04
2023-03-24T11:42:04.552Z,99505.51
2023-03-24T11:47:13.085Z,99497.87
2023-03-24T11:52:24.252Z,99484.64
2023-03-24T11:57:47.542Z,99477.49
2023-03-24T12:03:19.766Z,99470.92
2023-03-24T12:08:36.918Z,99463.60
2023-03-24T12:13:45.408Z,99458.52
2023-03-24T12:19:08.615Z,99454.01
2023-03-24T12:24:24.391Z,99446.52
2023-03-24T12:29:48.414Z,99440.98
2023-03-24T12:35:27.253Z,99435.25
2023-03-24T12:40:59.875Z,99421.05
2023-03-24T12:46:37.117Z,99415.13
2023-03-24T12:52:07.398Z,99405.52
2023-03-24T12:57:16.443Z,99396.11
2023-03-24T13:02:30.526Z,99392.73
2023-03-24T13:07:39.419Z,99388.05
2023-03-24T13:12:51.356Z,99396.83
2023-03-24T13:18:06.977Z,99385.54
2023-03-24T13:23:32.294Z,99369.86
2023-03-24T13:28:46.997Z,99366.11
2023-03-24T13:33:54.687Z,99355.53
2023-03-24T13:39:05.560Z,99347.96
2023-03-24T13:44:22.666Z,99337.41
2023-03-24T13:49:30.582Z,99328.27
2023-03-24T13:54:38.973Z,99326.38
2023-03-24T14:00:08.527Z,99324.27
2023-03-24T14:05:32.109Z,99318.98
2023-03-24T14:10:46.115Z,99312.32
2023-03-24T14:15:53.588Z,99307.27
2023-03-24T14:21:04.013Z,99303.34
2023-03-24T14:26:12.745Z,99301.06
2023-03-24T14:31:24.597Z,99295.67
2023-03-24T14:36:33.079Z,99288.66
2023-03-24T14:41:42.285Z,99279.91
2023-03-24T14:46:50.337Z,99270.38
2023-03-24T14:52:01.982Z,99267.63
2023-03-24T14:57:08.959Z,99258.97
2023-03-24T15:02:23.948Z,99255.73
2023-03-24T15:07:29.460Z,99243.86
2023-03-24T15:12:35.287Z,99246.14
2023-03-24T15:17:44.401Z,99234.09
2023-03-24T15:22:51.047Z,99235.70
2023-03-24T15:28:00.466Z,99230.67
2023-03-24T15:33:06.780Z,99219.11
2023-03-24T15:38:29.206Z,99216.48
2023-03-24T15:43:41.111Z,99214.70
2023-03-24T15:48:48.327Z,99212.03
2023-03-24T15:53:59.036Z,99211.23
2023-03-24T15:59:15.581Z,99202.27
2023-03-24T16:04:23.384Z,99200.98
2023-03-24T16:09:38.942Z,99201.48
2023-03-24T16:14:44.266Z,99192.30
2023-03-24T16:19:50.198Z,99186.83
2023-03-24T16:24:55.627Z,99188.95
2023-03-24T16:30:01.963Z,99184.31
2023-03-24T16:35:09.324Z,99178.92
2023-03-24T16:40:25.713Z,99178.66
2023-03-24T16:45:31.848Z,99182.59
2023-03-24T16:50:40.911Z,99211.56
2023-03-24T16:55:47.738Z,99259.35
2023-03-24T17:00:55.069Z,99268.61
2023-03-24T17:06:01.669Z,99270.66
2023-03-24T17:11:11.270Z,99283.23
2023-03-24T17:16:17.151Z,99294.09
2023-03-24T17:21:23.810Z,99307.46
2023-03-24T17:26:30.961Z,99314.44
2023-03-24T17:31:37.667Z,99325.06
2023-03-24T17:36:43.098Z,99325.42
2023-03-24T17:41:48.504Z,99325.85
2023-03-24T17:46:54.339Z,99324.05
2023-03-24T17:51:59.812Z,99318.33
2023-03-24T17:57:05.472Z,99313.41
2023-03-24T18:02:13.800Z,99315.27
2023-03-24T18:07:19.835Z,99316.30
2023-03-24T18:12:26.171Z,99312.92
2023-03-24T18:17:31.724Z,99300.00
2023-03-24T18:22:40.769Z,99296.90
2023-03-24T18:27:46.577Z,99296.23
2023-03-24T18:32:52.199Z,99278.73
2023-03-24T18:37:57.992Z,99269.16
2023-03-24T18:43:03.489Z,99269.70
2023-03-24T18:48:10.226Z,99277.20
2023-03-24T18:53:16.129Z,99283.33
2023-03-24T18:58:22.308Z,99292.36
2023-03-24T19:03:29.012Z,99290.32
2023-03-24T19:08:35.827Z,99290.84
2023-03-24T19:13:41.566Z,99277.27
2023-03-24T19:18:48.631Z,99278.05
2023-03-24T19:23:54.469Z,99266.69
2023-03-24T19:28:59.785Z,99269.80
2023-03-24T19:34:05.261Z,99273.12
2023-03-24T19:39:13.668Z,99273.60
2023-03-24T19:44:19.252Z,99272.37
2023-03-24T19:49:24.825Z,99268.52
2023-03-24T19:54:30.666Z,99270.25
2023-03-24T19:59:37.419Z,99263.73
2023-03-24T20:04:43.329Z,99252.33
2023-03-24T20:09:48.999Z,99251.23
2023-03-24T20:14:54.903Z,99247.59
2023-03-24T20:20:01.080Z,99248.09
2023-03-24T20:25:08.812Z,99258.52
2023-03-24T20:30:16.358Z,99275.29
2023-03-24T20:35:22.628Z,99289.47
2023-03-24T20:40:28.168Z,99297.05
2023-03-24T20:45:33.674Z,99308.55
2023-03-24T20:50:39.462Z,99311.71
2023-03-24T20:55:49.055Z,99316.11
2023-03-24T21:00:55.186Z,99321.52
2023-03-24T21:06:01.468Z,99318.27
2023-03-24T21:11:06.951Z,99328.14
2023-03-24T21:16:13.769Z,99340.93
2023-03-24T21:21:19.446Z,99351.91
2023-03-24T21:26:25.812Z,99356.44
2023-03-24T21:31:31.229Z,99345.02
2023-03-24T21:36:38.597Z,99356.70
2023-03-24T21:41:44.660Z,99378.73
2023-03-24T21:46:50.078Z,99354.52
2023-03-24T21:51:56.801Z,99327.11
2023-03-24T21:57:04.082Z,99331.78
2023-03-24T22:02:14.512Z,99337.83
2023-03-24T22:07:22.535Z,99339.89
2023-03-24T22:12:27.909Z,99358.01
2023-03-24T22:17:33.396Z,99363.55
2023-03-24T22:22:39.850Z,99366.13
2023-03-24T22:27:46.225Z,99359.86
2023-03-24T22:32:51.656Z,99364.92
2023-03-24T22:37:57.209Z,99365.54
2023-03-24T22:43:02.670Z,99375.13
2023-03-24T22:48:08.439Z,99380.60
2023-03-24T22:53:14.131Z,99388.64
2023-03-24T22:58:19.578Z,99393.98
2023-03-24T23:03:25.482Z,99402.98
2023-03-24T23:08:32.649Z,99421.45
2023-03-24T23:13:38.864Z,99424.23
2023-03-24T23:18:44.618Z,99411.02
2023-03-24T23:23:51.128Z,99420.02
2023-03-24T23:28:57.219Z,99414.02
2023-03-24T23:34:04.537Z,99413.14
2023-03-24T23:39:10.646Z,99416.88
2023-03-24T23:44:19.608Z,99415.42
2023-03-24T23:49:25.567Z,99410.28
2023-03-24T23:54:45.355Z,99416.66
2023-03-24T23:59:53.153Z,99418.95
